createdAt,value
2023-10-10T00:00:29.288Z,55.70
2023-10-10T00:05:41.731Z,56.59
2023-10-10T00:10:52.339Z,56.68
2023-10-10T00:15:58.556Z,55.36
2023-10-10T00:21:09.912Z,52.66
2023-10-10T00:26:16.700Z,54.31
2023-10-10T00:31:20.100Z,55.16
2023-10-10T00:36:32.611Z,56.30
2023-10-10T00:41:53.447Z,57.75
2023-10-10T00:46:59.085Z,57.87
2023-10-10T00:52:08.069Z,57.38
2023-10-10T00:57:15.236Z,56.82
2023-10-10T01:02:22.173Z,55.60
2023-10-10T01:07:28.152Z,56.36
2023-10-10T01:12:36.813Z,57.17
2023-10-10T01:17:40.676Z,58.18
2023-10-10T01:22:49.153Z,59.17
2023-10-10T01:27:55.808Z,59.16
2023-10-10T01:33:02.184Z,59.23
2023-10-10T01:38:15.220Z,59.50
2023-10-10T01:43:18.500Z,59.18
2023-10-10T01:48:26.574Z,57.17
2023-10-10T01:53:32.271Z,55.71
2023-10-10T01:58:37.937Z,54.32
2023-10-10T02:03:42.977Z,53.52
2023-10-10T02:09:15.257Z,52.88
2023-10-10T02:14:16.484Z,52.61
2023-10-10T02:19:26.933Z,53.47
2023-10-10T02:24:50.152Z,55.21
2023-10-10T02:29:54.771Z,56.83
2023-10-10T02:35:16.768Z,55.42
2023-10-10T02:40:32.215Z,56.83
2023-10-10T02:45:37.105Z,54.30
2023-10-10T02:50:43.021Z,52.65
2023-10-10T02:55:53.267Z,52.20
2023-10-10T03:00:58.956Z,53.75
2023-10-10T03:06:07.760Z,56.45
2023-10-10T03:11:36.755Z,56.61
2023-10-10T03:17:00.913Z,56.72
2023-10-10T03:22:19.544Z,54.50
2023-10-10T03:27:40.215Z,52.92
2023-10-10T03:33:01.050Z,53.59
2023-10-10T03:38:29.545Z,52.35
2023-10-10T03:44:00.259Z,52.04
2023-10-10T03:49:21.104Z,51.36
2023-10-10T03:54:38.096Z,51.17
2023-10-10T04:00:00.329Z,51.07
2023-10-10T04:05:27.047Z,50.87
2023-10-10T04:10:49.003Z,50.90
2023-10-10T04:16:11.096Z,50.75
2023-10-10T04:21:32.238Z,50.58
2023-10-10T04:26:52.691Z,50.88
2023-10-10T04:32:14.900Z,51.01
2023-10-10T04:37:37.429Z,50.85
2023-10-10T04:43:04.102Z,50.75
2023-10-10T04:48:26.382Z,51.06
2023-10-10T04:53:52.352Z,50.65
2023-10-10T04:59:14.048Z,50.77
2023-10-10T05:04:36.143Z,51.25
2023-10-10T05:09:56.617Z,51.76
2023-10-10T05:15:17.034Z,51.74
2023-10-10T05:20:41.784Z,51.49
2023-10-10T05:25:46.590Z,51.72
2023-10-10T05:30:49.791Z,51.94
2023-10-10T05:35:59.817Z,51.91
2023-10-10T05:41:04.398Z,52.16
2023-10-10T05:46:07.757Z,52.99
2023-10-10T05:51:14.543Z,52.79
2023-10-10T05:56:18.899Z,52.54
2023-10-10T06:01:25.068Z,52.85
2023-10-10T06:06:30.328Z,52.67
2023-10-10T06:11:36.126Z,52.67
2023-10-10T06:16:39.806Z,52.86
2023-10-10T06:21:45.522Z,53.17
2023-10-10T06:26:50.786Z,52.82
2023-10-10T06:31:53.971Z,52.95
2023-10-10T06:37:00.447Z,52.49
2023-10-10T06:42:05.314Z,52.58
2023-10-10T06:47:12.989Z,52.92
2023-10-10T06:52:20.464Z,52.76
2023-10-10T06:57:37.606Z,52.47
2023-10-10T07:02:42.892Z,52.25
2023-10-10T07:07:56.206Z,52.32
2023-10-10T07:13:02.444Z,52.35
2023-10-10T07:18:15.598Z,52.28
2023-10-10T07:23:22.104Z,52.16
2023-10-10T07:28:27.410Z,52.17
2023-10-10T07:33:41.894Z,49.95
2023-10-10T07:38:46.368Z,48.36
2023-10-10T07:43:54.050Z,46.43
2023-10-10T07:49:01.427Z,45.62
2023-10-10T07:54:14.034Z,45.00
2023-10-10T07:59:18.876Z,44.03
2023-10-10T08:04:23.751Z,42.53
2023-10-10T08:09:31.218Z,41.61
2023-10-10T08:14:38.924Z,40.64
2023-10-10T08:19:44.759Z,39.68
2023-10-10T08:24:49.353Z,38.97
2023-10-10T08:29:54.880Z,37.97
2023-10-10T08:35:06.054Z,37.05
2023-10-10T08:40:21.205Z,36.14
2023-10-10T08:45:27.797Z,34.98
2023-10-10T08:50:33.982Z,35.20
2023-10-10T08:55:42.414Z,36.05
2023-10-10T09:00:49.369Z,38.21
2023-10-10T09:05:53.250Z,38.44
2023-10-10T09:11:02.418Z,38.86
2023-10-10T09:16:16.594Z,39.25
2023-10-10T09:21:25.724Z,37.75
2023-10-10T09:26:38.244Z,34.78
2023-10-10T09:31:46.993Z,32.62
2023-10-10T09:37:03.672Z,31.49
2023-10-10T09:42:30.166Z,29.87
2023-10-10T09:47:45.388Z,29.69
2023-10-10T09:52:51.711Z,29.78
2023-10-10T09:58:09.750Z,29.22
2023-10-10T10:03:33.454Z,27.91
2023-10-10T10:08:46.267Z,27.50
2023-10-10T10:14:12.525Z,27.89
2023-10-10T10:19:29.388Z,27.35
2023-10-10T10:24:54.044Z,26.79
2023-10-10T10:30:09.972Z,26.66
2023-10-10T10:35:16.964Z,25.91
2023-10-10T10:40:26.441Z,25.66
2023-10-10T10:45:36.619Z,24.61
2023-10-10T10:50:47.039Z,24.62
2023-10-10T10:56:07.993Z,23.92
2023-10-10T11:01:18.106Z,23.31
2023-10-10T11:06:21.747Z,22.55
2023-10-10T11:11:28.176Z,21.88
2023-10-10T11:16:57.796Z,21.13
2023-10-10T11:22:06.801Z,21.18
2023-10-10T11:27:16.738Z,20.80
2023-10-10T11:32:30.921Z,20.77
2023-10-10T11:37:36.140Z,20.92
2023-10-10T11:42:39.448Z,19.71
2023-10-10T11:47:57.733Z,19.45
2023-10-10T11:53:02.526Z,18.97
2023-10-10T11:58:09.454Z,18.73
2023-10-10T12:03:21.846Z,18.28
2023-10-10T12:08:26.261Z,18.78
2023-10-10T12:13:39.177Z,18.53
2023-10-10T12:18:52.813Z,17.52
2023-10-10T12:24:10.750Z,18.24
2023-10-10T12:29:44.115Z,17.23
2023-10-10T12:35:01.155Z,18.19
2023-10-10T12:40:34.119Z,17.59
2023-10-10T12:45:55.840Z,17.09
2023-10-10T12:51:29.490Z,17.52
2023-10-10T12:59:25.879Z,17.55
2023-10-10T13:14:21.207Z,17.27
2023-10-10T13:19:54.937Z,17.28
2023-10-10T13:25:34.314Z,17.48
2023-10-10T13:36:47.303Z,17.15
2023-10-10T13:47:33.407Z,17.34
2023-10-10T13:52:40.762Z,16.58
2023-10-10T13:58:01.818Z,16.40
2023-10-10T14:03:47.073Z,15.85
2023-10-10T14:09:47.945Z,16.37
2023-10-10T14:15:40.321Z,16.38
2023-10-10T14:21:15.468Z,15.30
2023-10-10T14:26:56.865Z,16.40
2023-10-10T14:32:35.124Z,17.08
2023-10-10T14:38:36.228Z,16.29
2023-10-10T14:43:57.404Z,17.26
2023-10-10T14:49:31.020Z,16.44
2023-10-10T14:55:00.396Z,16.35
2023-10-10T15:00:24.006Z,17.38
2023-10-10T15:05:40.615Z,18.16
2023-10-10T15:10:50.420Z,17.36
2023-10-10T15:16:14.137Z,18.27
2023-10-10T15:21:35.876Z,18.33
2023-10-10T15:26:49.846Z,18.69
2023-10-10T15:32:07.108Z,19.92
2023-10-10T15:37:24.785Z,19.47
2023-10-10T15:42:40.322Z,19.37
2023-10-10T15:47:56.601Z,20.72
2023-10-10T15:53:07.220Z,21.12
2023-10-10T15:58:30.792Z,20.46
2023-10-10T16:03:43.974Z,21.07
2023-10-10T16:09:10.102Z,22.58
2023-10-10T16:14:22.087Z,24.44
2023-10-10T16:19:40.203Z,25.05
2023-10-10T16:24:53.931Z,26.50
2023-10-10T16:30:07.119Z,28.48
2023-10-10T16:35:16.691Z,29.26
2023-10-10T16:40:24.721Z,30.56
2023-10-10T16:45:37.359Z,31.54
2023-10-10T16:50:44.479Z,31.79
2023-10-10T16:55:49.873Z,32.45
2023-10-10T17:00:54.755Z,34.09
2023-10-10T17:06:01.967Z,34.98
2023-10-10T17:11:12.341Z,35.21
2023-10-10T17:16:26.934Z,35.05
2023-10-10T17:21:38.167Z,34.86
2023-10-10T17:26:45.335Z,34.79
2023-10-10T17:31:57.190Z,34.87
2023-10-10T17:37:03.189Z,35.13
2023-10-10T17:42:12.473Z,35.83
2023-10-10T17:47:22.108Z,36.18
2023-10-10T17:52:34.499Z,36.58
2023-10-10T17:57:41.943Z,37.27
2023-10-10T18:02:57.478Z,37.60
2023-10-10T18:08:02.330Z,37.97
2023-10-10T18:13:06.714Z,37.90
2023-10-10T18:18:14.305Z,38.61
2023-10-10T18:23:22.563Z,38.39
2023-10-10T18:28:31.250Z,39.57
2023-10-10T18:33:41.537Z,39.48
2023-10-10T18:38:46.856Z,39.46
2023-10-10T18:43:51.637Z,40.31
2023-10-10T18:48:58.672Z,40.55
2023-10-10T18:54:09.615Z,40.68
2023-10-10T18:59:15.080Z,40.91
2023-10-10T19:04:23.051Z,40.93
2023-10-10T19:09:30.900Z,41.02
2023-10-10T19:14:47.450Z,41.77
2023-10-10T19:19:54.558Z,41.49
2023-10-10T19:24:59.175Z,41.72
2023-10-10T19:30:05.601Z,41.23
2023-10-10T19:35:15.415Z,41.81
2023-10-10T19:40:21.953Z,42.29
2023-10-10T19:45:27.758Z,42.43
2023-10-10T19:50:32.918Z,42.82
2023-10-10T19:55:38.711Z,42.77
2023-10-10T20:00:47.063Z,42.73
2023-10-10T20:05:54.346Z,42.76
2023-10-10T20:10:58.469Z,43.11
2023-10-10T20:16:04.403Z,43.46
2023-10-10T20:21:09.042Z,43.77
2023-10-10T20:26:18.440Z,44.69
2023-10-10T20:31:23.476Z,45.11
2023-10-10T20:36:28.197Z,44.58
2023-10-10T20:41:33.966Z,44.41
2023-10-10T20:46:37.894Z,45.50
2023-10-10T20:51:44.550Z,45.18
2023-10-10T20:56:50.086Z,44.71
2023-10-10T21:01:53.658Z,45.73
2023-10-10T21:07:00.703Z,46.28
2023-10-10T21:12:08.535Z,46.53
2023-10-10T21:17:13.611Z,46.76
2023-10-10T21:22:21.670Z,47.39
2023-10-10T21:27:25.114Z,47.02
2023-10-10T21:32:28.373Z,46.87
2023-10-10T21:37:32.956Z,46.88
2023-10-10T21:42:36.140Z,47.45
2023-10-10T21:47:40.890Z,47.15
2023-10-10T21:52:47.165Z,48.30
2023-10-10T21:57:53.107Z,48.08
2023-10-10T22:02:56.389Z,48.91
2023-10-10T22:08:01.869Z,49.02
2023-10-10T22:13:05.649Z,49.44
2023-10-10T22:18:09.100Z,49.87
2023-10-10T22:23:20.351Z,50.78
2023-10-10T22:28:23.520Z,51.50
2023-10-10T22:33:26.782Z,50.72
2023-10-10T22:38:32.679Z,51.47
2023-10-10T22:43:37.933Z,51.65
2023-10-10T22:48:41.316Z,52.13
2023-10-10T22:53:47.867Z,52.82
2023-10-10T22:58:51.249Z,53.08
2023-10-10T23:03:54.605Z,54.21
2023-10-10T23:09:00.051Z,54.87
2023-10-10T23:14:06.345Z,55.50
2023-10-10T23:19:10.373Z,55.67
2023-10-10T23:24:18.200Z,54.76
2023-10-10T23:29:21.718Z,53.35
2023-10-10T23:34:25.548Z,55.22
2023-10-10T23:39:34.980Z,53.98
2023-10-10T23:44:43.610Z,52.93
2023-10-10T23:49:52.097Z,51.72
2023-10-10T23:54:57.241Z,55.83
